createdAt,value
2018-12-22T00:05:18.626Z,56.45
2018-12-22T00:06:31.148Z,62.05
2018-12-22T00:07:44.000Z,60.23
2018-12-22T00:08:56.827Z,63.38
2018-12-22T00:10:09.377Z,60.03
2018-12-22T00:11:37.542Z,63.02
2018-12-22T00:12:49.987Z,62.30
2018-12-22T00:14:05.135Z,50.58
2018-12-22T00:15:18.828Z,57.98
2018-12-22T00:16:33.204Z,50.63
2018-12-22T00:17:46.754Z,53.52
2018-12-22T00:19:01.627Z,59.00
2018-12-22T00:20:18.572Z,55.70
2018-12-22T00:21:32.323Z,54.05
2018-12-22T00:22:44.715Z,51.37
2018-12-22T00:23:59.798Z,53.48
2018-12-22T00:25:12.468Z,49.83
2018-12-22T00:26:26.222Z,50.92
2018-12-22T00:27:39.323Z,56.70
2018-12-22T00:28:51.867Z,51.53
2018-12-22T00:30:07.333Z,59.70
2018-12-22T00:31:21.845Z,57.33
2018-12-22T00:32:34.439Z,53.30
2018-12-22T00:33:47.030Z,55.60
2018-12-22T00:35:00.047Z,52.43
2018-12-22T00:36:12.723Z,53.00
2018-12-22T00:37:25.478Z,55.12
2018-12-22T00:40:37.796Z,49.13
2018-12-22T00:43:50.921Z,48.50
2018-12-22T00:45:04.171Z,48.68
2018-12-22T00:46:17.603Z,47.17
2018-12-22T00:47:31.424Z,48.78
2018-12-22T00:48:44.267Z,44.80
2018-12-22T00:49:57.197Z,45.48
2018-12-22T00:51:09.968Z,44.53
2018-12-22T00:52:22.667Z,42.03
2018-12-22T00:53:35.681Z,39.48
2018-12-22T00:54:44.287Z,36.93
2018-12-22T00:55:59.078Z,43.35
2018-12-22T00:57:11.866Z,44.93
2018-12-22T00:58:30.696Z,44.63
2018-12-22T00:59:42.712Z,52.60
2018-12-22T01:00:57.271Z,44.77
2018-12-22T01:02:12.126Z,46.48
2018-12-22T01:03:20.974Z,45.65
2018-12-22T01:04:34.087Z,44.90
2018-12-22T01:05:49.058Z,46.63
2018-12-22T01:18:08.370Z,46.05
2018-12-22T01:19:24.394Z,48.10
2018-12-22T01:20:37.932Z,38.60
2018-12-22T01:21:50.393Z,42.40
2018-12-22T01:22:59.829Z,45.78
2018-12-22T01:24:12.712Z,43.63
2018-12-22T01:25:25.494Z,44.20
2018-12-22T01:26:38.829Z,39.03
2018-12-22T01:27:52.127Z,41.45
2018-12-22T01:29:05.686Z,41.48
2018-12-22T01:30:19.387Z,42.17
2018-12-22T01:31:32.871Z,42.20
2018-12-22T01:32:47.448Z,46.63
2018-12-22T01:34:02.407Z,39.53
2018-12-22T01:35:16.330Z,42.40
2018-12-22T01:36:32.944Z,40.88
2018-12-22T01:37:47.423Z,40.85
2018-12-22T01:39:01.119Z,42.13
2018-12-22T01:40:15.612Z,42.13
2018-12-22T01:41:31.179Z,41.73
2018-12-22T01:42:48.421Z,42.43
2018-12-22T01:44:01.379Z,42.43
2018-12-22T01:45:16.223Z,37.55
2018-12-22T01:46:29.110Z,36.58
2018-12-22T01:47:42.549Z,40.52
2018-12-22T01:48:56.010Z,37.93
2018-12-22T01:50:09.838Z,36.48
2018-12-22T01:51:22.669Z,39.35
2018-12-22T01:52:35.185Z,46.08
2018-12-22T01:53:48.718Z,39.30
2018-12-22T01:55:01.860Z,37.80
2018-12-22T01:56:14.648Z,39.70
2018-12-22T01:57:27.404Z,37.95
2018-12-22T01:58:47.626Z,40.85
2018-12-22T01:59:55.456Z,36.73
2018-12-22T02:01:08.764Z,38.00
2018-12-22T02:02:21.457Z,38.45
2018-12-22T02:03:34.147Z,37.53
2018-12-22T02:04:47.800Z,43.90
2018-12-22T02:05:56.790Z,40.33
2018-12-22T02:07:09.544Z,34.25
2018-12-22T02:08:27.434Z,40.98
2018-12-22T02:09:36.021Z,36.63
2018-12-22T02:10:48.877Z,36.83
2018-12-22T02:12:01.687Z,36.83
2018-12-22T02:13:14.863Z,39.10
2018-12-22T02:14:29.478Z,37.93
2018-12-22T02:15:42.354Z,35.35
2018-12-22T02:16:55.991Z,38.15
2018-12-22T02:18:22.014Z,39.75
2018-12-22T02:29:27.962Z,36.83
2018-12-22T02:30:40.657Z,34.53
2018-12-22T02:31:53.663Z,28.95
2018-12-22T02:33:06.123Z,33.80
2018-12-22T02:34:19.008Z,36.05
2018-12-22T02:35:32.272Z,32.85
2018-12-22T02:36:44.782Z,29.67
2018-12-22T02:37:59.197Z,31.48
2018-12-22T02:39:13.999Z,29.67
2018-12-22T02:40:27.588Z,30.82
2018-12-22T02:41:40.429Z,32.73
2018-12-22T02:45:05.008Z,28.27
2018-12-22T02:46:17.578Z,27.73
2018-12-22T02:47:30.664Z,30.12
2018-12-22T02:48:43.216Z,31.65
2018-12-22T02:49:57.513Z,28.98
2018-12-22T02:51:13.198Z,28.40
2018-12-22T02:52:26.554Z,33.83
2018-12-22T02:53:40.990Z,31.02
2018-12-22T02:54:55.096Z,27.73
2018-12-22T02:56:10.723Z,29.25
2018-12-22T02:57:24.157Z,24.72
2018-12-22T02:58:37.291Z,33.05
2018-12-22T02:59:52.230Z,28.62
2018-12-22T03:01:06.910Z,27.62
2018-12-22T03:02:21.358Z,26.62
2018-12-22T03:03:36.440Z,26.20
2018-12-22T03:04:49.915Z,27.02
2018-12-22T03:06:04.017Z,26.35
2018-12-22T03:07:17.909Z,25.82
2018-12-22T03:08:33.169Z,24.40
2018-12-22T03:09:47.686Z,27.82
2018-12-22T03:11:00.077Z,23.62
2018-12-22T03:12:35.400Z,22.50
2018-12-22T03:13:53.716Z,20.45
2018-12-22T03:15:06.704Z,21.65
2018-12-22T03:16:21.273Z,22.05
2018-12-22T03:17:34.585Z,24.12
2018-12-22T03:18:47.446Z,26.48
2018-12-22T03:20:01.592Z,24.55
2018-12-22T03:21:16.200Z,20.25
2018-12-22T03:22:29.772Z,20.02
2018-12-22T03:23:43.487Z,19.98
2018-12-22T03:24:56.973Z,22.13
2018-12-22T03:26:12.759Z,16.82
2018-12-22T03:27:27.979Z,21.65
2018-12-22T03:28:41.031Z,19.70
2018-12-22T03:29:54.956Z,19.10
2018-12-22T03:31:11.586Z,20.25
2018-12-22T03:32:24.394Z,17.45
2018-12-22T03:33:38.988Z,15.35
2018-12-22T03:34:53.717Z,18.17
2018-12-22T03:36:08.270Z,18.30
2018-12-22T03:37:25.469Z,16.15
2018-12-22T03:38:38.483Z,19.60
2018-12-22T03:39:53.118Z,16.50
2018-12-22T03:41:07.988Z,17.98
2018-12-22T03:42:22.958Z,17.55
2018-12-22T03:43:38.206Z,16.93
2018-12-22T03:44:53.475Z,16.55
2018-12-22T03:46:06.670Z,17.37
2018-12-22T03:47:22.290Z,15.45
2018-12-22T03:48:36.075Z,20.25
2018-12-22T03:49:50.287Z,14.78
2018-12-22T03:51:04.999Z,17.50
2018-12-22T03:52:19.994Z,18.55
2018-12-22T03:53:34.223Z,14.05
2018-12-22T03:54:49.273Z,18.75
2018-12-22T03:56:01.987Z,17.00
2018-12-22T03:57:18.275Z,14.68
2018-12-22T03:58:32.058Z,17.30
2018-12-22T03:59:45.831Z,14.40
2018-12-22T04:00:59.599Z,15.60
2018-12-22T04:02:09.119Z,16.70
2018-12-22T04:03:23.058Z,21.07
2018-12-22T04:04:36.943Z,19.12
2018-12-22T04:05:52.485Z,20.60
2018-12-22T04:07:08.167Z,23.65
2018-12-22T04:08:23.649Z,16.95
2018-12-22T04:09:40.160Z,20.77
2018-12-22T04:10:55.023Z,19.42
2018-12-22T04:12:09.029Z,19.40
2018-12-22T04:13:22.167Z,20.88
2018-12-22T04:14:37.657Z,18.50
2018-12-22T04:15:53.902Z,21.15
2018-12-22T04:17:11.361Z,19.35
2018-12-22T04:18:27.348Z,15.68
2018-12-22T04:19:43.285Z,17.87
2018-12-22T04:20:58.363Z,18.17
2018-12-22T04:22:13.427Z,17.77
2018-12-22T04:23:28.218Z,23.73
2018-12-22T04:24:42.346Z,16.60
2018-12-22T04:25:57.854Z,18.55
2018-12-22T04:27:11.185Z,21.77
2018-12-22T04:28:26.938Z,21.27
2018-12-22T04:29:40.930Z,16.80
2018-12-22T04:30:56.575Z,18.55
2018-12-22T04:41:51.331Z,18.77
2018-12-22T04:43:05.888Z,17.73
2018-12-22T04:44:20.044Z,20.27
2018-12-22T04:45:34.685Z,19.35
2018-12-22T04:46:50.998Z,22.22
2018-12-22T04:48:08.383Z,21.68
2018-12-22T04:49:24.438Z,17.40
2018-12-22T04:50:37.621Z,20.40
2018-12-22T04:51:55.827Z,19.92
2018-12-22T04:53:09.756Z,22.37
2018-12-22T04:54:23.269Z,17.52
2018-12-22T04:55:39.963Z,20.72
2018-12-22T04:56:55.420Z,19.30
2018-12-22T04:58:10.507Z,16.42
2018-12-22T04:59:24.195Z,19.23
2018-12-22T05:00:38.130Z,17.15
2018-12-22T05:01:51.544Z,15.00
2018-12-22T05:03:05.814Z,18.50
2018-12-22T05:04:18.975Z,18.23
2018-12-22T05:05:40.929Z,13.55
2018-12-22T05:06:53.518Z,15.10
2018-12-22T05:08:06.682Z,19.57
2018-12-22T05:09:19.829Z,20.27
2018-12-22T05:10:33.449Z,21.10
2018-12-22T05:11:47.150Z,21.07
2018-12-22T05:13:00.499Z,16.05
2018-12-22T05:14:15.155Z,17.70
2018-12-22T05:15:29.686Z,20.45
2018-12-22T05:16:43.581Z,17.57
2018-12-22T05:17:56.945Z,23.77
2018-12-22T05:19:09.631Z,20.43
2018-12-22T05:20:22.341Z,15.25
2018-12-22T05:21:35.163Z,17.73
2018-12-22T05:22:47.648Z,16.87
2018-12-22T05:24:18.756Z,18.87
2018-12-22T05:25:31.390Z,20.45
2018-12-22T05:26:44.212Z,20.72
2018-12-22T05:27:58.887Z,18.57
2018-12-22T05:29:14.617Z,18.52
2018-12-22T05:30:29.369Z,18.07
2018-12-22T05:31:44.508Z,14.80
2018-12-22T05:32:59.105Z,18.60
2018-12-22T05:34:13.067Z,19.10
2018-12-22T05:35:28.375Z,17.02
2018-12-22T05:36:43.013Z,18.82
2018-12-22T05:37:58.500Z,14.18
2018-12-22T05:39:13.325Z,17.17
2018-12-22T05:40:27.639Z,22.17
2018-12-22T05:41:41.798Z,19.45
2018-12-22T05:42:56.150Z,19.37
2018-12-22T05:44:10.953Z,19.10
2018-12-22T05:45:25.404Z,17.87
2018-12-22T05:46:40.369Z,15.05
2018-12-22T05:47:54.878Z,15.10
2018-12-22T05:49:07.493Z,15.18
2018-12-22T05:50:20.093Z,17.62
2018-12-22T05:51:34.938Z,18.57
2018-12-22T05:52:47.680Z,14.05
2018-12-22T05:54:02.774Z,15.83
2018-12-22T05:55:15.547Z,13.55
2018-12-22T05:56:29.919Z,17.82
2018-12-22T05:57:43.590Z,15.08
2018-12-22T05:58:57.022Z,12.18
2018-12-22T06:00:10.719Z,16.25
2018-12-22T06:01:26.358Z,15.58
2018-12-22T06:02:39.719Z,18.05
2018-12-22T06:03:52.521Z,15.85
2018-12-22T06:05:07.829Z,17.17
2018-12-22T06:06:21.196Z,12.10
2018-12-22T06:07:33.862Z,15.32
2018-12-22T06:08:46.791Z,18.40
2018-12-22T06:10:02.486Z,15.90
2018-12-22T06:11:15.129Z,15.32
2018-12-22T06:12:27.946Z,20.08
2018-12-22T06:13:42.726Z,15.25
2018-12-22T06:14:55.222Z,17.35
2018-12-22T06:16:09.240Z,19.30
2018-12-22T06:17:22.350Z,21.57
2018-12-22T06:18:36.731Z,19.90
2018-12-22T06:19:50.095Z,18.17
2018-12-22T06:21:03.985Z,11.63
2018-12-22T06:22:18.500Z,16.75
2018-12-22T06:23:30.972Z,21.90
2018-12-22T06:24:52.820Z,17.37
2018-12-22T06:26:05.356Z,14.55
2018-12-22T06:27:18.234Z,15.45
2018-12-22T06:28:30.840Z,12.23
2018-12-22T06:29:43.927Z,14.25
2018-12-22T06:30:56.717Z,14.03
2018-12-22T06:32:09.358Z,12.68
2018-12-22T06:33:49.823Z,15.93
2018-12-22T06:35:02.901Z,14.50
2018-12-22T06:36:15.709Z,18.17
2018-12-22T06:37:29.344Z,17.85
2018-12-22T06:38:44.203Z,18.35
2018-12-22T06:39:56.970Z,15.45
2018-12-22T06:41:09.752Z,20.08
2018-12-22T06:42:23.583Z,15.63
2018-12-22T06:43:36.633Z,16.40
2018-12-22T06:44:50.217Z,14.33
2018-12-22T06:46:04.600Z,17.12
2018-12-22T06:47:19.013Z,17.12
2018-12-22T06:48:34.057Z,12.40
2018-12-22T06:49:47.001Z,18.45
2018-12-22T06:51:35.763Z,18.60
2018-12-22T06:52:48.291Z,15.68
2018-12-22T06:56:07.914Z,18.48
2018-12-22T06:57:21.996Z,17.90
2018-12-22T06:58:35.809Z,16.00
2018-12-22T06:59:48.693Z,13.95
2018-12-22T07:01:02.377Z,12.60
2018-12-22T07:02:24.338Z,14.13
2018-12-22T07:03:36.904Z,10.68
2018-12-22T07:04:49.920Z,12.05
2018-12-22T07:06:03.259Z,16.73
2018-12-22T07:07:17.187Z,12.80
2018-12-22T07:08:31.313Z,14.33
2018-12-22T07:09:44.169Z,13.83
2018-12-22T07:10:56.813Z,14.40
2018-12-22T07:12:19.076Z,14.43
2018-12-22T07:13:34.011Z,17.07
2018-12-22T07:14:47.667Z,17.17
2018-12-22T07:16:00.427Z,15.72
2018-12-22T07:17:13.678Z,14.07
2018-12-22T07:18:26.522Z,13.13
2018-12-22T07:19:40.786Z,15.85
2018-12-22T07:20:53.520Z,14.18
2018-12-22T07:22:06.858Z,24.40
2018-12-22T07:23:20.590Z,16.85
2018-12-22T07:24:34.116Z,13.72
2018-12-22T07:25:47.012Z,15.68
2018-12-22T07:26:59.930Z,17.45
2018-12-22T07:28:13.577Z,18.42
2018-12-22T07:29:27.284Z,16.37
2018-12-22T07:30:42.011Z,18.12
2018-12-22T07:31:56.070Z,19.37
2018-12-22T07:33:09.833Z,13.95
2018-12-22T07:34:23.004Z,12.68
2018-12-22T07:35:36.645Z,14.38
2018-12-22T07:36:50.621Z,15.20
2018-12-22T07:38:05.170Z,15.18
2018-12-22T07:39:18.851Z,12.40
2018-12-22T07:40:34.916Z,14.15
2018-12-22T07:41:50.996Z,17.60
2018-12-22T07:43:06.359Z,16.73
2018-12-22T07:44:21.144Z,19.75
2018-12-22T07:45:36.437Z,14.85
2018-12-22T07:46:51.616Z,17.90
2018-12-22T07:48:07.298Z,15.60
2018-12-22T07:49:22.717Z,17.45
2018-12-22T07:50:38.458Z,15.80
2018-12-22T07:51:53.743Z,17.82
2018-12-22T07:53:07.616Z,16.75
2018-12-22T07:54:21.154Z,19.10
2018-12-22T07:55:35.224Z,11.45
2018-12-22T07:56:49.299Z,16.05
2018-12-22T07:58:05.403Z,15.53
2018-12-22T07:59:21.613Z,15.78
2018-12-22T08:00:35.869Z,14.47
2018-12-22T08:01:48.658Z,12.30
2018-12-22T08:03:01.876Z,11.43
2018-12-22T08:04:16.921Z,12.33
2018-12-22T08:05:38.716Z,12.95
2018-12-22T08:06:48.760Z,14.70
2018-12-22T08:08:03.814Z,13.55
2018-12-22T08:09:16.443Z,11.40
2018-12-22T08:10:26.542Z,12.30
2018-12-22T08:11:40.022Z,13.43
2018-12-22T08:12:54.362Z,13.90
2018-12-22T08:14:07.825Z,11.38
2018-12-22T08:15:22.755Z,10.10
2018-12-22T08:16:35.877Z,8.78
2018-12-22T08:17:48.789Z,9.83
2018-12-22T08:19:01.528Z,14.20
2018-12-22T08:20:14.447Z,9.10
2018-12-22T08:21:27.301Z,7.50
2018-12-22T08:22:40.150Z,9.98
2018-12-22T08:23:52.934Z,10.65
2018-12-22T08:25:05.931Z,9.83
2018-12-22T08:26:18.908Z,11.40
2018-12-22T08:27:32.309Z,14.75
2018-12-22T08:28:45.245Z,18.62
2018-12-22T08:29:58.748Z,15.28
2018-12-22T08:31:12.094Z,17.40
2018-12-22T08:32:25.045Z,17.07
2018-12-22T08:33:37.856Z,17.42
2018-12-22T08:34:50.682Z,14.98
2018-12-22T08:36:04.618Z,16.85
2018-12-22T08:37:17.500Z,18.80
2018-12-22T08:38:30.234Z,19.45
2018-12-22T08:39:43.189Z,19.87
2018-12-22T08:40:56.094Z,21.97
2018-12-22T08:42:11.063Z,19.37
2018-12-22T08:43:23.482Z,19.57
2018-12-22T08:44:36.326Z,16.60
2018-12-22T08:52:23.613Z,19.57
2018-12-22T08:53:37.226Z,17.45
2018-12-22T08:54:52.545Z,17.07
2018-12-22T08:56:06.335Z,18.48
2018-12-22T08:57:20.193Z,18.15
2018-12-22T08:58:36.418Z,17.50
2018-12-22T08:59:50.923Z,19.65
2018-12-22T09:01:06.662Z,19.15
2018-12-22T09:02:22.588Z,8.35
2018-12-22T09:03:38.084Z,8.48
2018-12-22T09:04:53.760Z,8.58
2018-12-22T09:06:09.162Z,8.18
2018-12-22T09:07:22.254Z,8.45
2018-12-22T09:08:35.055Z,9.98
2018-12-22T09:09:50.542Z,7.87
2018-12-22T09:11:08.506Z,6.62
2018-12-22T09:12:23.637Z,6.53
2018-12-22T09:13:36.588Z,9.23
2018-12-22T09:14:49.007Z,6.55
2018-12-22T09:16:23.866Z,6.58
2018-12-22T09:17:37.453Z,5.60
2018-12-22T09:18:50.846Z,8.88
2018-12-22T09:20:06.231Z,6.05
2018-12-22T09:21:20.400Z,6.05
2018-12-22T09:22:33.753Z,4.22
2018-12-22T09:23:48.641Z,4.15
2018-12-22T09:25:04.671Z,3.95
2018-12-22T09:26:18.998Z,7.87
2018-12-22T09:27:33.431Z,4.00
2018-12-22T09:28:47.695Z,4.58
2018-12-22T09:30:02.182Z,5.33
2018-12-22T09:31:17.054Z,5.97
2018-12-22T09:32:32.760Z,6.20
2018-12-22T09:33:47.712Z,3.50
2018-12-22T09:35:02.558Z,3.67
2018-12-22T09:36:17.610Z,3.45
2018-12-22T09:37:32.365Z,3.55
2018-12-22T09:38:47.109Z,3.98
2018-12-22T09:40:02.819Z,4.80
2018-12-22T09:41:18.674Z,6.85
2018-12-22T09:42:31.483Z,2.83
2018-12-22T09:45:55.809Z,3.90
2018-12-22T09:47:08.501Z,4.03
2018-12-22T09:48:21.814Z,5.25
2018-12-22T09:49:35.602Z,6.37
2018-12-22T09:50:50.660Z,3.92
2018-12-22T09:52:04.081Z,6.40
2018-12-22T09:53:16.710Z,3.80
2018-12-22T09:54:32.069Z,2.50
2018-12-22T09:55:45.076Z,2.50
2018-12-22T09:56:59.032Z,2.95
2018-12-22T09:58:14.213Z,2.45
2018-12-22T09:59:29.773Z,2.77
2018-12-22T10:00:44.581Z,2.83
2018-12-22T10:01:57.961Z,1.75
2018-12-22T10:03:11.882Z,2.87
2018-12-22T10:04:28.441Z,2.30
2018-12-22T10:05:45.192Z,2.52
2018-12-22T10:06:58.418Z,3.22
2018-12-22T10:08:12.075Z,2.27
2018-12-22T10:09:24.966Z,4.05
2018-12-22T10:10:40.486Z,2.58
2018-12-22T10:11:55.757Z,3.40
2018-12-22T10:13:08.925Z,3.47
2018-12-22T10:14:21.690Z,2.90
2018-12-22T10:15:30.457Z,5.03
2018-12-22T10:17:04.922Z,2.37
2018-12-22T10:18:18.871Z,1.47
2018-12-22T10:19:33.086Z,1.20
2018-12-22T10:20:45.581Z,1.67
2018-12-22T10:21:58.550Z,2.52
2018-12-22T10:23:17.051Z,1.55
2018-12-22T10:24:33.306Z,1.92
2018-12-22T10:25:47.458Z,1.52
2018-12-22T10:27:03.477Z,4.20
2018-12-22T10:28:18.521Z,1.50
2018-12-22T10:29:33.858Z,1.62
2018-12-22T10:30:52.963Z,1.87
2018-12-22T10:32:15.395Z,1.70
2018-12-22T10:33:31.220Z,1.65
2018-12-22T10:34:45.057Z,1.60
2018-12-22T10:35:59.279Z,2.00
2018-12-22T10:37:12.657Z,1.70
2018-12-22T10:38:27.243Z,2.10
2018-12-22T10:39:41.702Z,1.70
2018-12-22T10:40:58.913Z,2.12
2018-12-22T10:42:14.439Z,2.15
2018-12-22T10:43:27.355Z,2.30
2018-12-22T10:44:40.623Z,2.12
2018-12-22T10:45:53.151Z,3.55
2018-12-22T10:47:06.109Z,1.98
2018-12-22T10:48:18.928Z,2.22
2018-12-22T10:49:31.750Z,5.03
2018-12-22T10:50:44.856Z,5.17
2018-12-22T10:51:58.188Z,3.12
2018-12-22T10:53:13.522Z,4.55
2018-12-22T10:59:54.485Z,18.17
2018-12-22T11:01:07.246Z,6.03
2018-12-22T11:02:19.886Z,10.75
2018-12-22T11:03:35.528Z,12.50
2018-12-22T11:04:55.113Z,7.92
2018-12-22T11:06:11.936Z,5.62
2018-12-22T11:07:29.750Z,4.75
2018-12-22T11:08:45.692Z,3.10
2018-12-22T11:10:00.278Z,4.67
2018-12-22T11:11:16.474Z,6.85
2018-12-22T11:12:32.190Z,5.37
2018-12-22T11:13:46.140Z,7.40
2018-12-22T11:14:59.328Z,4.30
2018-12-22T11:16:12.052Z,4.70
2018-12-22T11:17:24.908Z,5.00
2018-12-22T11:18:37.912Z,3.47
2018-12-22T11:19:50.652Z,3.75
2018-12-22T11:21:03.598Z,5.45
2018-12-22T11:22:16.540Z,4.05
2018-12-22T11:23:29.562Z,3.50
2018-12-22T11:24:42.525Z,5.03
2018-12-22T11:25:55.747Z,4.53
2018-12-22T11:27:08.881Z,4.42
2018-12-22T11:28:22.282Z,5.37
2018-12-22T11:29:36.334Z,4.40
2018-12-22T11:30:49.685Z,4.83
2018-12-22T11:32:02.429Z,3.47
2018-12-22T11:33:15.621Z,3.92
2018-12-22T11:34:28.875Z,5.45
2018-12-22T11:35:41.827Z,6.10
2018-12-22T11:36:54.527Z,4.33
2018-12-22T11:38:09.829Z,4.35
2018-12-22T11:39:22.892Z,3.77
2018-12-22T11:40:35.481Z,5.53
2018-12-22T11:41:48.552Z,5.17
2018-12-22T11:43:04.299Z,5.20
2018-12-22T11:44:20.310Z,2.98
2018-12-22T11:45:33.753Z,4.20
2018-12-22T11:46:46.754Z,3.50
2018-12-22T11:48:23.518Z,7.72
2018-12-22T11:49:42.153Z,4.10
2018-12-22T11:50:56.560Z,5.15
2018-12-22T11:52:09.723Z,5.12
2018-12-22T11:53:24.444Z,3.58
2018-12-22T11:54:38.221Z,3.83
2018-12-22T11:55:52.487Z,4.10
2018-12-22T11:57:06.120Z,2.92
2018-12-22T11:58:21.427Z,2.50
2018-12-22T11:59:35.712Z,2.80
2018-12-22T12:09:35.936Z,3.25
2018-12-22T12:10:50.559Z,3.55
2018-12-22T12:12:04.271Z,3.05
2018-12-22T12:13:20.894Z,2.65
2018-12-22T12:14:33.908Z,3.58
2018-12-22T12:15:53.311Z,3.58
2018-12-22T12:17:23.108Z,4.45
2018-12-22T12:19:07.229Z,3.30
2018-12-22T12:20:22.513Z,3.08
2018-12-22T12:21:35.962Z,4.25
2018-12-22T12:22:48.733Z,4.85
2018-12-22T12:24:01.643Z,2.87
2018-12-22T12:25:14.440Z,3.70
2018-12-22T12:26:27.069Z,7.42
2018-12-22T12:27:40.016Z,3.20
2018-12-22T12:28:53.680Z,5.05
2018-12-22T12:30:08.775Z,4.08
2018-12-22T12:31:21.404Z,4.42
2018-12-22T12:32:35.001Z,5.05
2018-12-22T12:33:47.912Z,5.05
2018-12-22T12:35:01.177Z,6.80
2018-12-22T12:36:13.616Z,5.05
2018-12-22T12:37:28.402Z,5.10
2018-12-22T12:38:39.496Z,6.75
2018-12-22T12:39:54.564Z,5.12
2018-12-22T12:41:10.602Z,5.17
2018-12-22T12:42:25.316Z,4.97
2018-12-22T12:43:40.300Z,6.00
2018-12-22T12:44:53.528Z,4.42
2018-12-22T12:46:07.295Z,5.83
2018-12-22T12:47:20.059Z,7.67
2018-12-22T12:48:37.279Z,3.60
2018-12-22T12:49:51.554Z,3.40
2018-12-22T12:51:04.859Z,2.90
2018-12-22T12:52:17.751Z,4.95
2018-12-22T12:53:30.497Z,3.62
2018-12-22T12:54:43.447Z,4.62
2018-12-22T12:55:56.421Z,5.10
2018-12-22T12:57:09.692Z,5.53
2018-12-22T12:58:22.981Z,4.37
2018-12-22T12:59:36.026Z,5.17
2018-12-22T13:00:51.700Z,8.38
2018-12-22T13:02:08.680Z,4.83
2018-12-22T13:03:23.541Z,5.35
2018-12-22T13:04:38.264Z,5.90
2018-12-22T13:05:51.567Z,6.40
2018-12-22T13:07:04.243Z,4.78
2018-12-22T13:08:17.084Z,6.42
2018-12-22T13:09:30.086Z,5.87
2018-12-22T13:10:42.835Z,6.20
2018-12-22T13:11:56.943Z,5.83
2018-12-22T13:14:19.984Z,6.15
2018-12-22T13:15:32.514Z,7.28
2018-12-22T13:16:45.285Z,5.65
2018-12-22T13:17:58.098Z,5.90
2018-12-22T13:19:07.930Z,9.30
2018-12-22T13:20:21.092Z,9.00
2018-12-22T13:21:35.243Z,7.58
2018-12-22T13:22:48.420Z,4.83
2018-12-22T13:24:01.213Z,5.17
2018-12-22T13:25:14.528Z,5.15
2018-12-22T13:26:36.763Z,4.87
2018-12-22T13:27:48.130Z,7.95
2018-12-22T13:29:00.926Z,3.87
2018-12-22T13:30:14.845Z,4.72
2018-12-22T13:31:30.019Z,4.65
2018-12-22T13:32:43.299Z,4.60
2018-12-22T13:33:55.951Z,4.30
2018-12-22T13:35:36.250Z,4.80
2018-12-22T13:36:49.418Z,5.37
2018-12-22T13:38:04.393Z,4.25
2018-12-22T13:39:21.433Z,7.53
2018-12-22T13:40:36.524Z,5.20
2018-12-22T13:41:49.568Z,4.92
2018-12-22T13:43:21.610Z,6.37
2018-12-22T13:44:37.056Z,4.70
2018-12-22T13:45:54.135Z,3.05
2018-12-22T13:47:07.229Z,3.87
2018-12-22T13:48:20.438Z,3.52
2018-12-22T13:49:33.459Z,4.42
2018-12-22T13:50:46.430Z,4.95
2018-12-22T13:51:59.952Z,5.05
2018-12-22T13:53:13.012Z,5.42
2018-12-22T13:54:27.175Z,4.75
2018-12-22T13:55:41.228Z,3.00
2018-12-22T13:56:56.655Z,3.60
2018-12-22T13:58:10.716Z,2.87
2018-12-22T13:59:23.249Z,3.42
2018-12-22T14:00:40.271Z,4.33
2018-12-22T14:01:57.981Z,3.52
2018-12-22T14:03:15.580Z,4.10
2018-12-22T14:04:29.427Z,3.87
2018-12-22T14:05:42.251Z,3.20
2018-12-22T14:06:55.192Z,3.65
2018-12-22T14:08:08.104Z,3.65
2018-12-22T14:09:22.078Z,4.30
2018-12-22T14:10:35.010Z,3.17
2018-12-22T14:11:48.367Z,3.47
2018-12-22T14:13:01.946Z,3.72
2018-12-22T14:14:22.600Z,3.08
2018-12-22T14:15:39.113Z,2.72
2018-12-22T14:17:35.279Z,2.65
2018-12-22T14:18:54.285Z,5.90
2018-12-22T14:20:11.678Z,4.25
2018-12-22T14:21:26.840Z,5.22
2018-12-22T14:22:43.619Z,4.08
2018-12-22T14:24:34.559Z,3.08
2018-12-22T14:25:48.274Z,5.05
2018-12-22T14:27:01.808Z,2.92
2018-12-22T14:28:15.039Z,3.25
2018-12-22T14:29:30.060Z,4.33
2018-12-22T14:30:47.451Z,3.62
2018-12-22T14:32:00.402Z,3.72
2018-12-22T14:33:13.314Z,6.97
2018-12-22T14:34:32.098Z,8.80
2018-12-22T14:35:53.281Z,8.35
2018-12-22T14:37:08.829Z,8.28
2018-12-22T14:38:23.301Z,7.92
2018-12-22T14:39:37.759Z,6.33
2018-12-22T14:40:51.788Z,4.80
2018-12-22T14:42:06.298Z,3.75
2018-12-22T14:43:19.781Z,3.83
2018-12-22T14:44:33.519Z,3.35
2018-12-22T14:45:49.655Z,2.62
2018-12-22T14:47:05.172Z,2.22
2018-12-22T14:48:20.672Z,4.10
2018-12-22T14:49:36.128Z,3.02
2018-12-22T14:50:50.797Z,2.50
2018-12-22T14:52:08.068Z,2.47
2018-12-22T14:53:22.570Z,2.20
2018-12-22T14:54:38.717Z,2.40
2018-12-22T14:55:54.695Z,5.58
2018-12-22T14:57:07.385Z,3.25
2018-12-22T14:58:24.487Z,3.40
2018-12-22T14:59:38.422Z,5.58
2018-12-22T15:00:51.312Z,4.85
2018-12-22T15:02:04.078Z,4.47
2018-12-22T15:03:17.501Z,4.25
2018-12-22T15:04:33.914Z,4.12
2018-12-22T15:05:48.852Z,4.00
2018-12-22T15:07:03.153Z,4.60
2018-12-22T15:08:16.330Z,4.45
2018-12-22T15:09:29.144Z,3.10
2018-12-22T15:10:42.088Z,4.55
2018-12-22T15:11:55.009Z,3.75
2018-12-22T15:13:07.725Z,3.70
2018-12-22T15:14:21.805Z,6.62
2018-12-22T15:15:34.428Z,4.30
2018-12-22T15:16:48.576Z,3.90
2018-12-22T15:18:03.438Z,5.35
2018-12-22T15:19:17.510Z,6.35
2018-12-22T15:20:32.587Z,5.50
2018-12-22T15:21:46.422Z,4.90
2018-12-22T15:22:59.911Z,4.42
2018-12-22T15:24:10.315Z,5.20
2018-12-22T15:25:23.506Z,5.25
2018-12-22T15:26:36.398Z,6.15
2018-12-22T15:27:49.194Z,4.83
2018-12-22T15:29:02.364Z,5.33
2018-12-22T15:30:18.993Z,5.67
2018-12-22T15:31:33.947Z,6.08
2018-12-22T15:32:54.306Z,4.40
2018-12-22T15:34:09.248Z,8.68
2018-12-22T15:35:22.299Z,6.92
2018-12-22T15:36:36.068Z,5.03
2018-12-22T15:37:49.025Z,5.37
2018-12-22T15:39:01.573Z,5.42
2018-12-22T15:40:16.402Z,5.28
2018-12-22T15:41:29.013Z,5.65
2018-12-22T15:42:42.416Z,6.25
2018-12-22T15:43:56.097Z,6.30
2018-12-22T15:45:13.944Z,6.33
2018-12-22T15:46:26.781Z,5.47
2018-12-22T15:47:41.114Z,5.10
2018-12-22T15:48:56.114Z,5.50
2018-12-22T15:50:12.764Z,4.92
2018-12-22T15:51:27.441Z,5.40
2018-12-22T15:52:40.972Z,6.37
2018-12-22T15:53:54.559Z,6.35
2018-12-22T15:55:10.476Z,8.38
2018-12-22T15:56:27.356Z,6.37
2018-12-22T15:57:43.050Z,7.70
2018-12-22T15:58:59.133Z,8.03
2018-12-22T16:00:15.768Z,6.05
2018-12-22T16:01:31.388Z,6.83
2018-12-22T16:02:41.975Z,7.85
2018-12-22T16:03:58.043Z,7.47
2018-12-22T16:05:14.162Z,5.92
2018-12-22T16:06:31.190Z,6.53
2018-12-22T16:07:45.822Z,6.20
2018-12-22T16:08:58.423Z,7.40
2018-12-22T16:10:13.250Z,8.00
2018-12-22T16:11:26.330Z,11.08
2018-12-22T16:12:38.917Z,8.50
2018-12-22T16:13:52.788Z,10.28
2018-12-22T16:15:09.546Z,9.18
2018-12-22T16:16:23.694Z,9.05
2018-12-22T16:17:36.013Z,9.33
2018-12-22T16:18:49.462Z,8.95
2018-12-22T16:20:02.733Z,7.33
2018-12-22T16:21:17.130Z,8.70
2018-12-22T16:22:29.822Z,7.00
2018-12-22T16:23:43.350Z,6.55
2018-12-22T16:24:56.430Z,6.87
2018-12-22T16:26:10.202Z,7.30
2018-12-22T16:27:23.077Z,9.15
2018-12-22T16:28:39.949Z,7.37
2018-12-22T16:29:56.784Z,5.75
2018-12-22T16:31:10.735Z,6.40
2018-12-22T16:32:25.890Z,9.88
2018-12-22T16:33:38.862Z,10.18
2018-12-22T16:34:52.421Z,5.65
2018-12-22T16:36:05.659Z,9.05
2018-12-22T16:37:21.083Z,6.62
2018-12-22T16:38:35.561Z,7.35
2018-12-22T16:39:50.508Z,8.45
2018-12-22T16:41:05.532Z,7.80
2018-12-22T16:42:23.300Z,7.72
2018-12-22T16:43:37.065Z,8.78
2018-12-22T16:44:52.295Z,6.72
2018-12-22T16:46:07.419Z,7.75
2018-12-22T16:47:21.033Z,8.23
2018-12-22T16:48:37.452Z,8.40
2018-12-22T16:49:51.772Z,6.20
2018-12-22T16:51:02.356Z,7.10
2018-12-22T16:52:15.798Z,7.17
2018-12-22T16:53:29.189Z,7.70
2018-12-22T16:54:43.753Z,9.00
2018-12-22T16:55:57.777Z,11.03
2018-12-22T16:57:13.699Z,9.73
2018-12-22T16:58:32.355Z,7.20
2018-12-22T16:59:48.402Z,8.75
2018-12-22T17:01:26.470Z,7.58
2018-12-22T17:02:49.800Z,9.03
2018-12-22T17:04:04.689Z,14.18
2018-12-22T17:05:19.121Z,10.65
2018-12-22T17:06:36.245Z,10.95
2018-12-22T17:07:52.715Z,9.18
2018-12-22T17:09:11.020Z,7.30
2018-12-22T17:10:29.681Z,9.50
2018-12-22T17:11:43.885Z,9.03
2018-12-22T17:12:58.425Z,11.40
2018-12-22T17:14:12.401Z,12.70
2018-12-22T17:15:30.358Z,11.00
2018-12-22T17:16:47.101Z,10.55
2018-12-22T17:18:03.768Z,11.97
2018-12-22T17:19:19.495Z,10.58
2018-12-22T17:20:36.209Z,10.80
2018-12-22T17:22:15.099Z,12.60
2018-12-22T17:24:08.594Z,11.78
2018-12-22T17:25:32.628Z,11.55